This is the latest recevied weather packets stored in our database for station/object KB0RPJ. If no packets are shown the sender has not sent any weather packets the latest 10 day(s).
| Time | Temp. | Humidity | Pressure | Rain* | Wind** | Luminosity | Snow |
|---|---|---|---|---|---|---|---|
| 1777605308 | 9.44° C | 63% | 1018.4 hPa | 0 mm | - | 0 W/m² | - |
| 1777605005 | 9.44° C | 64% | 1018.3 hPa | 0 mm | - | 0 W/m² | - |
| 1777604705 | 9.44° C | 66% | 1018.3 hPa | 0 mm | - | 0 W/m² | - |
| 1777604405 | 9.44° C | 66% | 1018.3 hPa | 0 mm | - | 0 W/m² | - |
| 1777604105 | 9.44° C | 66% | 1018.3 hPa | 0 mm | - | 0 W/m² | - |
| 1777603807 | 9.44° C | 65% | 1018.2 hPa | 0 mm | - | 0 W/m² | - |
| 1777603505 | 9.44° C | 65% | 1018.2 hPa | 0 mm | - | 0 W/m² | - |
| 1777603205 | 9.44° C | 64% | 1018 hPa | 0 mm | - | 0 W/m² | - |
| 1777602904 | 10° C | 63% | 1017.9 hPa | 0 mm | - | 0 W/m² | - |
| 1777602604 | 10° C | 63% | 1017.8 hPa | 0 mm | - | 0 W/m² | - |
| 1777602304 | 10° C | 62% | 1017.6 hPa | 0 mm | - | 0 W/m² | - |
| 1777602005 | 10.56° C | 61% | 1017.6 hPa | 0 mm | - | 0 W/m² | - |
| 1777587005 | 14.44° C | 57% | 1015.2 hPa | 0 mm | - | 131 W/m² | - |
| 1777583706 | 15° C | 65% | 1015 hPa | 0 mm | - | 111 W/m² | - |
| 1777583418 | 15° C | 62% | 1015 hPa | 0 mm | - | 83 W/m² | - |
| 1777580405 | 17.22° C | 47% | 1014.8 hPa | 0 mm | - | 299 W/m² | - |
| 1777579505 | 17.78° C | 45% | 1014.8 hPa | 0 mm | - | 491 W/m² | - |
| 1777577705 | 17.78° C | 49% | 1014.7 hPa | 0 mm | - | 276 W/m² | - |
| 1777577106 | 17.22° C | 50% | 1014.8 hPa | 0 mm | - | 1012 W/m² | - |
| 1777576808 | 17.22° C | 47% | 1014.8 hPa | 0 mm | - | 310 W/m² | - |
| 1777576208 | 17.22° C | 49% | 1014.9 hPa | 0 mm | - | 140 W/m² | - |
| 1777575906 | 17.22° C | 47% | 1014.9 hPa | 0 mm | - | 196 W/m² | - |
| 1777572905 | 17.22° C | 47% | 1015.1 hPa | 0 mm | - | 157 W/m² | - |
| 1777571105 | 17.78° C | 48% | 1015.5 hPa | 0 mm | - | 814 W/m² | - |
| 1777569906 | 17.22° C | 54% | 1015.9 hPa | 0 mm | - | 999 W/m² | - |
* Rain latest hour (hover to see other rain measurements)
** Current wind speed in m/s (hover to see current wind gust speed)